createdAt,value
2023-02-05T00:01:02.716Z,84.72
2023-02-05T00:03:29.110Z,84.82
2023-02-05T00:05:55.541Z,84.88
2023-02-05T00:08:21.875Z,84.70
2023-02-05T00:10:52.550Z,84.66
2023-02-05T00:13:19.204Z,85.00
2023-02-05T00:15:45.572Z,84.79
2023-02-05T00:18:11.896Z,84.36
2023-02-05T00:20:38.294Z,84.49
2023-02-05T00:23:04.640Z,84.74
2023-02-05T00:25:31.874Z,84.43
2023-02-05T00:27:58.414Z,84.29
2023-02-05T00:30:24.816Z,84.23
2023-02-05T00:32:51.162Z,84.23
2023-02-05T00:35:17.496Z,83.98
2023-02-05T00:37:43.879Z,84.50
2023-02-05T00:40:10.797Z,84.17
2023-02-05T00:42:37.131Z,84.12
2023-02-05T00:45:03.712Z,84.10
2023-02-05T00:47:30.092Z,84.60
2023-02-05T00:49:56.389Z,84.65
2023-02-05T00:52:22.944Z,84.53
2023-02-05T00:54:49.280Z,84.37
2023-02-05T00:57:15.612Z,84.67
2023-02-05T00:59:41.952Z,84.30
2023-02-05T01:02:08.297Z,84.71
2023-02-05T01:04:34.692Z,84.71
2023-02-05T01:07:01.038Z,84.83
2023-02-05T01:09:27.467Z,85.02
2023-02-05T01:11:53.843Z,84.92
2023-02-05T01:14:20.149Z,85.09
2023-02-05T01:16:46.490Z,84.74
2023-02-05T01:19:12.825Z,85.11
2023-02-05T01:21:39.174Z,84.84
2023-02-05T01:24:05.758Z,84.99
2023-02-05T01:26:32.110Z,85.02
2023-02-05T01:28:58.421Z,85.27
2023-02-05T01:31:25.601Z,85.20
2023-02-05T01:33:52.111Z,85.28
2023-02-05T01:36:18.493Z,85.51
2023-02-05T01:38:44.814Z,85.47
2023-02-05T01:41:13.226Z,85.51
2023-02-05T01:43:39.719Z,85.29
2023-02-05T01:46:25.634Z,85.22
2023-02-05T01:48:57.738Z,85.47
2023-02-05T01:51:25.952Z,85.66
2023-02-05T01:53:52.826Z,85.33
2023-02-05T01:56:27.092Z,85.27
2023-02-05T01:59:05.124Z,85.33
2023-02-05T02:01:32.426Z,85.16
2023-02-05T02:04:04.351Z,85.01
2023-02-05T02:06:33.089Z,85.09
2023-02-05T02:09:00.157Z,84.98
2023-02-05T02:11:30.204Z,84.96
2023-02-05T02:14:01.043Z,84.94
2023-02-05T02:16:29.621Z,85.13
2023-02-05T02:18:56.706Z,84.93
2023-02-05T02:21:31.800Z,85.11
2023-02-05T02:24:30.254Z,85.08
2023-02-05T02:27:20.212Z,85.20
2023-02-05T02:30:02.643Z,85.22
2023-02-05T02:32:38.695Z,85.43
2023-02-05T02:35:24.147Z,85.74
2023-02-05T02:38:13.105Z,86.43
2023-02-05T02:40:45.024Z,86.31
2023-02-05T02:43:19.284Z,87.00
2023-02-05T02:46:07.927Z,86.69
2023-02-05T02:48:38.054Z,86.65
2023-02-05T02:51:09.153Z,87.07
2023-02-05T02:53:40.657Z,86.77
2023-02-05T02:56:09.823Z,87.19
2023-02-05T02:58:42.772Z,87.12
2023-02-05T03:01:11.654Z,87.32
2023-02-05T03:03:44.405Z,87.13
2023-02-05T03:06:12.838Z,87.35
2023-02-05T03:09:01.167Z,87.61
2023-02-05T03:11:27.794Z,87.56
2023-02-05T03:13:55.963Z,87.67
2023-02-05T03:16:26.968Z,87.67
2023-02-05T03:18:54.601Z,87.78
2023-02-05T03:21:36.066Z,87.39
2023-02-05T03:24:02.508Z,87.44
2023-02-05T03:26:32.059Z,87.39
2023-02-05T03:29:10.204Z,87.24
2023-02-05T03:31:57.144Z,86.73
2023-02-05T03:34:41.230Z,86.77
2023-02-05T03:37:31.138Z,87.12
2023-02-05T03:40:12.455Z,87.26
2023-02-05T03:43:10.337Z,87.38
2023-02-05T03:45:49.906Z,87.53
2023-02-05T03:48:54.554Z,87.79
2023-02-05T03:51:46.094Z,87.76
2023-02-05T03:54:23.266Z,88.29
2023-02-05T03:56:58.864Z,88.46
2023-02-05T03:59:27.482Z,88.56
2023-02-05T04:01:55.019Z,88.57
2023-02-05T04:04:21.913Z,89.08
2023-02-05T04:06:53.007Z,89.29
2023-02-05T04:09:19.686Z,89.07
2023-02-05T04:11:46.022Z,89.01
2023-02-05T04:14:12.418Z,88.94
2023-02-05T04:16:40.886Z,88.95
2023-02-05T04:19:07.466Z,89.14
2023-02-05T04:21:33.919Z,89.38
2023-02-05T04:24:00.793Z,89.78
2023-02-05T04:26:27.838Z,90.10
2023-02-05T04:29:00.406Z,90.30
2023-02-05T04:31:28.167Z,90.43
2023-02-05T04:33:55.249Z,90.81
2023-02-05T04:36:22.001Z,90.90
2023-02-05T04:38:48.455Z,91.21
2023-02-05T04:41:14.799Z,91.10
2023-02-05T04:43:41.165Z,91.27
2023-02-05T04:46:11.667Z,91.61
2023-02-05T04:48:39.036Z,91.48
2023-02-05T04:51:10.671Z,91.93
2023-02-05T04:53:37.957Z,91.82
2023-02-05T04:56:08.853Z,91.73
2023-02-05T04:58:35.628Z,91.74
2023-02-05T05:01:02.889Z,91.71
2023-02-05T05:03:29.260Z,91.66
2023-02-05T05:05:55.799Z,91.69
2023-02-05T05:08:22.291Z,91.61
2023-02-05T05:10:48.617Z,91.84
2023-02-05T05:13:14.983Z,92.27
2023-02-05T05:15:41.387Z,92.06
2023-02-05T05:18:07.761Z,92.47
2023-02-05T05:20:34.085Z,92.22
2023-02-05T05:23:00.823Z,92.25
2023-02-05T05:25:27.847Z,92.20
2023-02-05T05:27:54.184Z,92.15
2023-02-05T05:30:20.646Z,92.61
2023-02-05T05:32:46.954Z,92.37
2023-02-05T05:35:13.355Z,92.50
2023-02-05T05:37:39.662Z,92.48
2023-02-05T05:40:25.048Z,92.66
2023-02-05T05:43:09.708Z,92.41
2023-02-05T05:45:36.303Z,92.77
2023-02-05T05:48:03.144Z,92.86
2023-02-05T05:50:29.493Z,92.57
2023-02-05T05:53:00.792Z,92.50
2023-02-05T05:55:27.094Z,92.29
2023-02-05T05:57:53.395Z,92.81
2023-02-05T06:00:19.958Z,92.87
2023-02-05T06:02:46.303Z,92.88
2023-02-05T06:05:12.824Z,92.93
2023-02-05T06:07:39.158Z,92.80
2023-02-05T06:10:05.911Z,92.71
2023-02-05T06:12:32.236Z,92.82
2023-02-05T06:14:58.562Z,92.90
2023-02-05T06:17:24.966Z,92.91
2023-02-05T06:19:51.281Z,92.91
2023-02-05T06:22:17.628Z,92.71
2023-02-05T06:24:44.058Z,92.56
2023-02-05T06:27:10.494Z,92.61
2023-02-05T06:29:36.823Z,92.46
2023-02-05T06:32:03.354Z,93.01
2023-02-05T06:34:29.828Z,92.74
2023-02-05T06:36:56.358Z,92.58
2023-02-05T06:39:24.902Z,92.72
2023-02-05T06:41:51.507Z,92.99
2023-02-05T06:44:17.817Z,92.42
2023-02-05T06:46:44.139Z,92.49
2023-02-05T06:49:10.489Z,92.77
2023-02-05T06:51:36.879Z,92.57
2023-02-05T06:54:03.239Z,92.43
2023-02-05T06:56:29.707Z,92.65
2023-02-05T06:58:56.033Z,92.83
2023-02-05T07:01:22.376Z,92.59
2023-02-05T07:03:49.349Z,92.72
2023-02-05T07:06:15.842Z,92.88
2023-02-05T07:08:42.842Z,92.48
2023-02-05T07:11:09.345Z,92.14
2023-02-05T07:13:35.666Z,92.21
2023-02-05T07:16:05.388Z,92.00
2023-02-05T07:18:33.850Z,92.12
2023-02-05T07:21:04.074Z,92.16
2023-02-05T07:23:30.448Z,91.89
2023-02-05T07:25:56.842Z,91.83
2023-02-05T07:28:23.187Z,92.01
2023-02-05T07:30:49.969Z,91.73
2023-02-05T07:33:16.756Z,92.17
2023-02-05T07:35:43.226Z,92.15
2023-02-05T07:38:10.801Z,91.94
2023-02-05T07:40:37.562Z,91.54
2023-02-05T07:43:03.887Z,91.46
2023-02-05T07:45:30.212Z,91.67
2023-02-05T07:47:56.543Z,91.15
2023-02-05T07:50:22.889Z,90.99
2023-02-05T07:52:49.248Z,90.85
2023-02-05T07:55:15.664Z,91.18
2023-02-05T07:57:42.015Z,90.83
2023-02-05T08:00:09.603Z,90.75
2023-02-05T08:02:38.371Z,90.60
2023-02-05T08:05:05.018Z,90.80
2023-02-05T08:07:31.391Z,90.55
2023-02-05T08:09:57.746Z,90.51
2023-02-05T08:12:24.181Z,90.27
2023-02-05T08:14:52.533Z,90.62
2023-02-05T08:17:18.849Z,90.52
2023-02-05T08:19:45.220Z,90.93
2023-02-05T08:22:11.538Z,90.84
2023-02-05T08:24:38.227Z,89.92
2023-02-05T08:27:04.616Z,89.53
2023-02-05T08:29:31.003Z,89.47
2023-02-05T08:31:57.350Z,88.97
2023-02-05T08:34:23.715Z,89.25
2023-02-05T08:36:50.073Z,88.71
2023-02-05T08:39:16.406Z,88.58
2023-02-05T08:41:42.792Z,88.14
2023-02-05T08:44:09.761Z,87.86
2023-02-05T08:46:48.692Z,87.82
2023-02-05T08:49:16.940Z,88.01
2023-02-05T08:51:43.425Z,87.79
2023-02-05T08:54:12.961Z,87.62
2023-02-05T08:56:40.213Z,87.30
2023-02-05T08:59:06.618Z,87.24
2023-02-05T09:01:33.024Z,87.26
2023-02-05T09:03:59.420Z,87.51
2023-02-05T09:06:25.777Z,87.51
2023-02-05T09:08:52.183Z,87.78
2023-02-05T09:11:23.564Z,88.10
2023-02-05T09:13:49.929Z,88.58
2023-02-05T09:16:16.322Z,88.44
2023-02-05T09:18:42.673Z,88.85
2023-02-05T09:21:10.199Z,89.67
2023-02-05T09:23:37.184Z,89.47
2023-02-05T09:26:03.896Z,89.54
2023-02-05T09:28:30.226Z,89.54
2023-02-05T09:30:56.729Z,89.85
2023-02-05T09:33:23.237Z,89.88
2023-02-05T09:35:49.613Z,89.46
2023-02-05T09:38:18.063Z,89.15
2023-02-05T09:40:59.431Z,88.93
2023-02-05T09:43:53.263Z,88.68
2023-02-05T09:46:32.474Z,88.75
2023-02-05T09:49:05.642Z,88.58
2023-02-05T09:51:35.258Z,88.10
2023-02-05T09:54:25.642Z,88.53
2023-02-05T09:56:56.110Z,87.91
2023-02-05T09:59:25.091Z,88.27
2023-02-05T10:01:56.153Z,88.67
2023-02-05T10:04:23.384Z,88.97
2023-02-05T10:07:06.003Z,89.20
2023-02-05T10:10:00.743Z,89.59
2023-02-05T10:12:36.327Z,90.03
2023-02-05T10:15:35.252Z,90.10
2023-02-05T10:18:11.059Z,90.26
2023-02-05T10:20:58.801Z,90.31
2023-02-05T10:23:37.239Z,90.51
2023-02-05T10:26:12.433Z,90.27
2023-02-05T10:29:15.952Z,90.17
2023-02-05T10:31:44.787Z,90.31
2023-02-05T10:34:18.655Z,90.74
2023-02-05T10:36:51.933Z,90.70
2023-02-05T10:39:20.390Z,90.49
2023-02-05T10:42:01.619Z,90.40
2023-02-05T10:44:34.598Z,89.98
2023-02-05T10:47:09.967Z,89.99
2023-02-05T10:49:45.142Z,90.07
2023-02-05T10:52:13.383Z,90.02
2023-02-05T10:54:41.147Z,90.37
2023-02-05T10:57:17.140Z,90.53
2023-02-05T10:59:54.876Z,90.29
2023-02-05T11:02:25.186Z,90.69
2023-02-05T11:05:00.942Z,90.62
2023-02-05T11:07:34.427Z,90.69
2023-02-05T11:10:15.714Z,90.60
2023-02-05T11:12:45.052Z,90.64
2023-02-05T11:15:52.895Z,90.97
2023-02-05T11:18:24.921Z,90.70
2023-02-05T11:20:56.851Z,90.74
2023-02-05T11:23:24.775Z,90.82
2023-02-05T11:25:59.890Z,90.88
2023-02-05T11:28:29.250Z,90.80
2023-02-05T11:30:57.365Z,90.80
2023-02-05T11:33:31.228Z,91.08
2023-02-05T11:36:05.556Z,91.23
2023-02-05T11:38:44.087Z,90.95
2023-02-05T11:41:25.943Z,91.02
2023-02-05T11:43:53.757Z,90.85
2023-02-05T11:46:23.374Z,90.79
2023-02-05T11:48:59.605Z,91.03
2023-02-05T11:51:45.630Z,91.07
2023-02-05T11:54:26.984Z,90.68
2023-02-05T11:57:08.751Z,90.46
2023-02-05T11:59:35.584Z,90.38
2023-02-05T12:02:28.499Z,90.31
2023-02-05T12:05:00.601Z,90.11
2023-02-05T12:07:34.072Z,90.12
2023-02-05T12:10:01.231Z,89.92
2023-02-05T12:12:30.385Z,89.51
2023-02-05T12:15:34.746Z,89.57
2023-02-05T12:18:17.575Z,89.63
2023-02-05T12:21:08.945Z,89.75
2023-02-05T12:23:41.086Z,89.34
2023-02-05T12:26:23.760Z,89.29
2023-02-05T12:28:57.259Z,88.94
2023-02-05T12:31:56.629Z,88.81
2023-02-05T12:34:45.606Z,89.15
2023-02-05T12:37:20.889Z,88.94
2023-02-05T12:40:25.347Z,88.66
2023-02-05T12:43:09.873Z,88.26
2023-02-05T12:45:48.593Z,88.42
2023-02-05T12:48:38.916Z,88.28
2023-02-05T12:51:11.034Z,88.19
2023-02-05T12:54:08.567Z,88.20
2023-02-05T12:56:57.958Z,87.20
2023-02-05T12:59:39.179Z,87.37
2023-02-05T13:02:29.712Z,87.40
2023-02-05T13:04:56.006Z,87.02
2023-02-05T13:07:44.979Z,86.79
2023-02-05T13:10:24.849Z,87.10
2023-02-05T13:13:00.119Z,86.86
2023-02-05T13:15:41.865Z,86.94
2023-02-05T13:18:23.798Z,86.31
2023-02-05T13:21:14.109Z,85.69
2023-02-05T13:24:01.438Z,85.66
2023-02-05T13:26:57.333Z,85.32
2023-02-05T13:29:31.913Z,84.81
2023-02-05T13:32:14.700Z,84.54
2023-02-05T13:34:42.090Z,84.12
2023-02-05T13:37:28.307Z,84.08
2023-02-05T13:40:11.937Z,83.99
2023-02-05T13:42:59.398Z,83.48
2023-02-05T13:45:49.879Z,82.80
2023-02-05T13:48:49.872Z,82.58
2023-02-05T13:51:38.879Z,82.20
2023-02-05T13:54:44.356Z,82.07
2023-02-05T13:57:29.093Z,81.78
2023-02-05T13:59:56.262Z,81.39
2023-02-05T14:02:41.215Z,81.11
2023-02-05T14:05:08.955Z,80.99
2023-02-05T14:07:42.929Z,79.22
2023-02-05T14:10:23.483Z,78.51
2023-02-05T14:12:49.878Z,78.00
2023-02-05T14:15:16.342Z,78.53
2023-02-05T14:17:42.630Z,77.90
2023-02-05T14:20:24.205Z,77.60
2023-02-05T14:22:58.002Z,77.33
2023-02-05T14:25:37.912Z,77.44
2023-02-05T14:28:16.506Z,77.95
2023-02-05T14:30:50.535Z,77.49
2023-02-05T14:33:31.876Z,78.11
2023-02-05T14:36:24.169Z,78.61
2023-02-05T14:38:50.462Z,78.25
2023-02-05T14:41:24.677Z,77.71
2023-02-05T14:44:01.835Z,77.70
2023-02-05T14:46:44.875Z,78.01
2023-02-05T14:49:34.286Z,77.74
2023-02-05T14:52:03.778Z,77.60
2023-02-05T14:54:36.047Z,77.81
2023-02-05T14:57:14.483Z,76.92
2023-02-05T14:59:52.123Z,77.66
2023-02-05T15:02:46.331Z,77.13
2023-02-05T15:05:38.757Z,77.68
2023-02-05T15:08:16.757Z,76.99
2023-02-05T15:11:14.786Z,77.11
2023-02-05T15:13:42.003Z,75.74
2023-02-05T15:16:11.078Z,76.45
2023-02-05T15:18:59.672Z,76.57
2023-02-05T15:21:30.277Z,76.67
2023-02-05T15:23:59.403Z,78.52
2023-02-05T15:26:34.612Z,79.17
2023-02-05T15:29:07.098Z,80.13
2023-02-05T15:31:38.966Z,80.62
2023-02-05T15:34:21.427Z,81.10
2023-02-05T15:37:11.087Z,81.47
2023-02-05T15:39:46.545Z,81.67
2023-02-05T15:42:20.022Z,81.83
2023-02-05T15:44:46.979Z,81.77
2023-02-05T15:47:22.282Z,81.82
2023-02-05T15:49:55.060Z,82.15
2023-02-05T15:52:24.922Z,82.19
2023-02-05T15:54:54.458Z,82.56
2023-02-05T15:57:24.666Z,82.80
2023-02-05T15:59:53.794Z,82.45
2023-02-05T16:02:28.657Z,82.86
2023-02-05T16:05:00.236Z,82.65
2023-02-05T16:07:35.618Z,83.00
2023-02-05T16:10:16.167Z,82.45
2023-02-05T16:12:58.678Z,82.31
2023-02-05T16:15:29.483Z,81.99
2023-02-05T16:17:59.550Z,81.83
2023-02-05T16:20:34.162Z,81.12
2023-02-05T16:23:05.457Z,80.93
2023-02-05T16:25:47.075Z,80.76
2023-02-05T16:28:19.759Z,80.77
2023-02-05T16:30:48.799Z,80.15
2023-02-05T16:33:24.739Z,80.57
2023-02-05T16:35:52.203Z,80.31
2023-02-05T16:38:20.955Z,80.22
2023-02-05T16:40:50.302Z,80.00
2023-02-05T16:43:25.412Z,80.02
2023-02-05T16:46:07.088Z,78.84
2023-02-05T16:48:37.201Z,78.82
2023-02-05T16:51:05.063Z,78.90
2023-02-05T16:53:34.563Z,78.19
2023-02-05T16:56:18.409Z,78.17
2023-02-05T16:58:48.861Z,77.57
2023-02-05T17:01:22.459Z,77.98
2023-02-05T17:03:50.412Z,77.77
2023-02-05T17:06:18.832Z,78.01
2023-02-05T17:08:52.804Z,77.99
2023-02-05T17:11:38.502Z,78.27
2023-02-05T17:14:28.825Z,78.48
2023-02-05T17:16:58.975Z,78.45
2023-02-05T17:19:27.508Z,78.36
2023-02-05T17:22:18.794Z,78.50
2023-02-05T17:24:48.007Z,78.71
2023-02-05T17:27:23.369Z,78.38
2023-02-05T17:29:49.919Z,77.95
2023-02-05T17:32:18.507Z,78.74
2023-02-05T17:34:46.002Z,78.02
2023-02-05T17:37:13.576Z,77.79
2023-02-05T17:39:40.827Z,77.95
2023-02-05T17:42:24.065Z,78.09
2023-02-05T17:44:51.477Z,77.88
2023-02-05T17:47:18.538Z,77.67
2023-02-05T17:49:44.904Z,77.84
2023-02-05T17:52:11.463Z,76.97
2023-02-05T17:54:38.355Z,77.35
2023-02-05T17:57:34.876Z,77.36
2023-02-05T18:00:01.194Z,77.46
2023-02-05T18:02:27.723Z,77.05
2023-02-05T18:04:54.125Z,76.89
2023-02-05T18:07:33.026Z,77.44
2023-02-05T18:09:59.544Z,77.54
2023-02-05T18:12:26.759Z,77.52
2023-02-05T18:14:53.765Z,77.62
2023-02-05T18:17:20.109Z,77.77
2023-02-05T18:19:46.591Z,77.71
2023-02-05T18:22:13.214Z,78.01
2023-02-05T18:24:39.747Z,78.31
2023-02-05T18:27:08.081Z,78.51
2023-02-05T18:29:35.907Z,78.04
2023-02-05T18:32:03.207Z,78.07
2023-02-05T18:34:29.657Z,78.08
2023-02-05T18:36:56.417Z,78.28
2023-02-05T18:39:23.406Z,78.22
2023-02-05T18:41:49.723Z,77.30
2023-02-05T18:44:16.265Z,77.80
2023-02-05T18:46:42.941Z,77.45
2023-02-05T18:49:09.276Z,77.90
2023-02-05T18:51:35.636Z,77.54
2023-02-05T18:54:02.270Z,77.72
2023-02-05T18:56:28.739Z,77.83
2023-02-05T18:59:02.908Z,78.44
2023-02-05T19:01:30.611Z,78.38
2023-02-05T19:04:01.347Z,78.09
2023-02-05T19:06:27.984Z,78.11
2023-02-05T19:08:56.679Z,78.13
2023-02-05T19:11:25.119Z,77.88
2023-02-05T19:14:00.368Z,77.77
2023-02-05T19:16:27.335Z,78.04
2023-02-05T19:18:53.808Z,78.06
2023-02-05T19:21:21.725Z,77.78
2023-02-05T19:23:53.785Z,77.86
2023-02-05T19:26:23.133Z,77.78
2023-02-05T19:28:59.064Z,78.22
2023-02-05T19:31:27.811Z,78.39
2023-02-05T19:33:55.495Z,78.16
2023-02-05T19:36:23.000Z,78.25
2023-02-05T19:38:49.389Z,78.28
2023-02-05T19:41:18.325Z,78.03
2023-02-05T19:43:50.588Z,78.29
2023-02-05T19:46:19.003Z,78.13
2023-02-05T19:48:45.659Z,77.96
2023-02-05T19:51:14.390Z,78.59
2023-02-05T19:53:43.231Z,78.61
2023-02-05T19:56:23.384Z,78.80
2023-02-05T19:58:52.318Z,78.31
2023-02-05T20:01:30.965Z,78.24
2023-02-05T20:04:10.879Z,78.77
2023-02-05T20:06:37.758Z,78.39
2023-02-05T20:09:10.121Z,78.10
2023-02-05T20:11:38.330Z,78.63
2023-02-05T20:14:05.319Z,78.75
2023-02-05T20:16:32.192Z,78.54
2023-02-05T20:18:59.949Z,78.35
2023-02-05T20:21:27.511Z,78.64
2023-02-05T20:23:55.282Z,78.73
2023-02-05T20:26:22.505Z,78.67
2023-02-05T20:29:11.322Z,79.08
2023-02-05T20:31:42.683Z,78.70
2023-02-05T20:34:22.151Z,78.86
2023-02-05T20:36:57.576Z,78.89
2023-02-05T20:39:28.559Z,79.58
2023-02-05T20:41:57.723Z,79.75
2023-02-05T20:44:26.468Z,79.11
2023-02-05T20:46:53.061Z,79.88
2023-02-05T20:49:19.552Z,79.65
2023-02-05T20:51:46.298Z,79.24
2023-02-05T20:54:13.045Z,79.55
2023-02-05T20:56:39.708Z,79.80
2023-02-05T20:59:07.770Z,79.95
2023-02-05T21:01:36.419Z,79.97
2023-02-05T21:04:04.566Z,79.90
2023-02-05T21:06:34.694Z,79.62
2023-02-05T21:09:01.371Z,80.11
2023-02-05T21:11:29.008Z,79.96
2023-02-05T21:13:55.733Z,80.24
2023-02-05T21:16:23.689Z,79.92
2023-02-05T21:18:51.307Z,80.15
2023-02-05T21:21:25.228Z,80.47
2023-02-05T21:23:56.970Z,80.81
2023-02-05T21:26:30.684Z,81.25
2023-02-05T21:28:59.478Z,81.61
2023-02-05T21:31:34.886Z,81.17
2023-02-05T21:34:06.235Z,81.03
2023-02-05T21:36:33.087Z,81.32
2023-02-05T21:39:00.074Z,81.31
2023-02-05T21:41:26.615Z,81.08
2023-02-05T21:43:55.728Z,81.23
2023-02-05T21:46:23.612Z,81.31
2023-02-05T21:48:53.746Z,81.42
2023-02-05T21:51:23.085Z,81.84
2023-02-05T21:53:58.519Z,81.83
2023-02-05T21:56:30.504Z,81.42
2023-02-05T21:58:57.379Z,81.46
2023-02-05T22:01:27.307Z,81.79
2023-02-05T22:03:56.458Z,81.52
2023-02-05T22:06:24.426Z,81.96
2023-02-05T22:08:51.538Z,81.99
2023-02-05T22:11:20.670Z,81.80
2023-02-05T22:13:49.117Z,81.77
2023-02-05T22:16:24.095Z,82.63
2023-02-05T22:18:50.905Z,82.09
2023-02-05T22:21:20.552Z,82.22
2023-02-05T22:23:49.161Z,82.13
2023-02-05T22:26:20.621Z,82.45
2023-02-05T22:28:47.736Z,82.62
2023-02-05T22:31:17.033Z,82.98
2023-02-05T22:33:46.489Z,82.27
2023-02-05T22:36:17.875Z,82.62
2023-02-05T22:38:44.585Z,82.47
2023-02-05T22:41:14.983Z,82.83
2023-02-05T22:43:41.636Z,83.18
2023-02-05T22:46:12.187Z,83.42
2023-02-05T22:48:41.398Z,83.35
2023-02-05T22:51:11.421Z,83.35
2023-02-05T22:53:38.437Z,83.41
2023-02-05T22:56:07.254Z,83.74
2023-02-05T22:58:34.116Z,83.82
2023-02-05T23:01:11.358Z,84.06
2023-02-05T23:03:38.934Z,84.32
2023-02-05T23:06:17.141Z,84.24
2023-02-05T23:08:44.678Z,84.19
2023-02-05T23:11:13.349Z,84.55
2023-02-05T23:13:40.861Z,84.21
2023-02-05T23:16:17.234Z,84.81
2023-02-05T23:18:45.104Z,84.72
2023-02-05T23:21:14.849Z,85.17
2023-02-05T23:23:41.630Z,85.17
2023-02-05T23:26:10.186Z,85.12
2023-02-05T23:28:37.120Z,85.24
2023-02-05T23:31:03.783Z,85.35
2023-02-05T23:33:30.458Z,85.20
2023-02-05T23:35:56.820Z,85.36
2023-02-05T23:38:24.989Z,85.36
2023-02-05T23:40:55.581Z,85.46
2023-02-05T23:43:22.609Z,85.60
2023-02-05T23:45:51.112Z,85.42
2023-02-05T23:48:17.757Z,85.74
2023-02-05T23:50:44.396Z,85.76
2023-02-05T23:53:11.287Z,86.51
2023-02-05T23:55:41.834Z,85.92
2023-02-05T23:58:09.145Z,86.79
